createdAt,value
2023-03-20T00:01:14.720Z,93.74
2023-03-20T00:03:41.948Z,94.68
2023-03-20T00:06:21.711Z,96.98
2023-03-20T00:08:51.870Z,97.35
2023-03-20T00:11:34.624Z,99.64
2023-03-20T00:14:06.553Z,100.00
2023-03-20T00:16:36.188Z,100.00
2023-03-20T00:19:04.166Z,100.00
2023-03-20T00:21:31.929Z,100.00
2023-03-20T00:23:59.287Z,100.00
2023-03-20T00:26:31.188Z,100.00
2023-03-20T00:28:58.168Z,100.00
2023-03-20T00:31:29.748Z,100.00
2023-03-20T00:34:01.751Z,98.47
2023-03-20T00:36:29.040Z,96.81
2023-03-20T00:38:59.494Z,99.29
2023-03-20T00:41:44.408Z,100.00
2023-03-20T00:44:42.405Z,100.00
2023-03-20T00:47:19.030Z,100.00
2023-03-20T00:49:48.177Z,100.00
2023-03-20T00:52:17.351Z,100.00
2023-03-20T00:54:44.341Z,100.00
2023-03-20T00:57:14.113Z,100.00
2023-03-20T00:59:50.949Z,100.00
2023-03-20T01:02:18.053Z,100.00
2023-03-20T01:04:45.216Z,100.00
2023-03-20T01:07:15.360Z,100.00
2023-03-20T01:09:42.618Z,100.00
2023-03-20T01:12:12.664Z,100.00
2023-03-20T01:14:42.138Z,100.00
2023-03-20T01:17:19.890Z,100.00
2023-03-20T01:19:47.920Z,100.00
2023-03-20T01:22:15.011Z,100.00
2023-03-20T01:24:42.189Z,100.00
2023-03-20T01:27:14.446Z,100.00
2023-03-20T01:29:42.257Z,100.00
2023-03-20T01:32:15.237Z,100.00
2023-03-20T01:34:44.994Z,100.00
2023-03-20T01:37:18.692Z,100.00
2023-03-20T01:39:46.162Z,100.00
2023-03-20T01:42:16.450Z,100.00
2023-03-20T01:44:44.569Z,100.00
2023-03-20T01:47:21.474Z,100.00
2023-03-20T01:50:19.530Z,100.00
2023-03-20T01:52:50.835Z,100.00
2023-03-20T01:55:18.491Z,100.00
2023-03-20T01:57:54.787Z,100.00
2023-03-20T02:00:24.020Z,100.00
2023-03-20T02:02:51.938Z,100.00
2023-03-20T02:05:55.902Z,100.00
2023-03-20T02:08:31.826Z,100.00
2023-03-20T02:11:04.464Z,100.00
2023-03-20T02:13:33.016Z,100.00
2023-03-20T02:16:05.935Z,100.00
2023-03-20T02:18:53.850Z,100.00
2023-03-20T02:21:54.061Z,100.00
2023-03-20T02:24:39.738Z,100.00
2023-03-20T02:27:06.815Z,100.00
2023-03-20T02:30:11.676Z,100.00
2023-03-20T02:33:01.290Z,100.00
2023-03-20T02:35:49.612Z,100.00
2023-03-20T02:38:44.246Z,100.00
2023-03-20T02:41:26.341Z,100.00
2023-03-20T02:44:20.759Z,100.00
2023-03-20T02:47:05.736Z,100.00
2023-03-20T02:49:41.630Z,100.00
2023-03-20T02:52:40.984Z,100.00
2023-03-20T02:55:34.782Z,100.00
2023-03-20T02:58:07.938Z,100.00
2023-03-20T03:00:40.435Z,100.00
2023-03-20T03:03:24.459Z,100.00
2023-03-20T03:05:58.809Z,100.00
2023-03-20T03:08:30.232Z,100.00
2023-03-20T03:11:08.822Z,100.00
2023-03-20T03:13:41.963Z,100.00
2023-03-20T03:16:16.593Z,100.00
2023-03-20T03:18:46.828Z,100.00
2023-03-20T03:21:17.632Z,100.00
2023-03-20T03:23:49.363Z,100.00
2023-03-20T03:26:29.213Z,100.00
2023-03-20T03:29:02.257Z,100.00
2023-03-20T03:31:31.883Z,100.00
2023-03-20T03:34:01.535Z,100.00
2023-03-20T03:36:47.059Z,100.00
2023-03-20T03:39:52.269Z,100.00
2023-03-20T03:42:43.700Z,100.00
2023-03-20T03:45:25.150Z,100.00
2023-03-20T03:48:00.403Z,100.00
2023-03-20T03:50:40.385Z,100.00
2023-03-20T03:53:12.924Z,100.00
2023-03-20T03:55:46.052Z,100.00
2023-03-20T03:58:19.414Z,100.00
2023-03-20T04:00:50.697Z,100.00
2023-03-20T04:03:21.307Z,100.00
2023-03-20T04:05:49.884Z,100.00
2023-03-20T04:08:16.931Z,100.00
2023-03-20T04:10:44.652Z,100.00
2023-03-20T04:13:12.009Z,100.00
2023-03-20T04:15:39.199Z,100.00
2023-03-20T04:18:07.958Z,100.00
2023-03-20T04:20:35.937Z,100.00
2023-03-20T04:23:05.889Z,100.00
2023-03-20T04:25:33.130Z,100.00
2023-03-20T04:28:00.289Z,100.00
2023-03-20T04:30:39.856Z,100.00
2023-03-20T04:33:32.372Z,100.00
2023-03-20T04:36:07.060Z,100.00
2023-03-20T04:38:34.151Z,100.00
2023-03-20T04:41:01.956Z,100.00
2023-03-20T04:43:29.179Z,100.00
2023-03-20T04:45:56.463Z,100.00
2023-03-20T04:48:24.130Z,100.00
2023-03-20T04:50:51.598Z,100.00
2023-03-20T04:53:26.720Z,100.00
2023-03-20T04:55:55.312Z,100.00
2023-03-20T04:58:23.755Z,100.00
2023-03-20T05:00:51.049Z,100.00
2023-03-20T05:03:18.138Z,100.00
2023-03-20T05:05:45.575Z,100.00
2023-03-20T05:08:12.934Z,100.00
2023-03-20T05:10:40.820Z,100.00
2023-03-20T05:13:26.211Z,99.15
2023-03-20T05:16:01.452Z,99.60
2023-03-20T05:18:42.815Z,98.83
2023-03-20T05:21:39.265Z,97.96
2023-03-20T05:24:27.584Z,98.22
2023-03-20T05:27:32.784Z,100.00
2023-03-20T05:30:12.452Z,100.00
2023-03-20T05:32:43.938Z,100.00
2023-03-20T05:35:29.143Z,100.00
2023-03-20T05:38:16.138Z,100.00
2023-03-20T05:41:01.359Z,100.00
2023-03-20T05:43:46.855Z,100.00
2023-03-20T05:46:34.187Z,100.00
2023-03-20T05:49:21.504Z,100.00
2023-03-20T05:52:07.430Z,100.00
2023-03-20T05:54:52.649Z,100.00
2023-03-20T05:57:38.338Z,100.00
2023-03-20T06:00:26.132Z,100.00
2023-03-20T06:03:13.216Z,100.00
2023-03-20T06:05:59.544Z,100.00
2023-03-20T06:08:26.574Z,100.00
2023-03-20T06:10:57.864Z,100.00
2023-03-20T06:13:25.246Z,100.00
2023-03-20T06:15:52.662Z,100.00
2023-03-20T06:18:19.974Z,100.00
2023-03-20T06:20:53.915Z,100.00
2023-03-20T06:23:21.257Z,100.00
2023-03-20T06:25:48.669Z,100.00
2023-03-20T06:28:17.053Z,100.00
2023-03-20T06:30:44.793Z,100.00
2023-03-20T06:33:17.066Z,100.00
2023-03-20T06:35:58.165Z,100.00
2023-03-20T06:38:27.448Z,100.00
2023-03-20T06:40:54.894Z,100.00
2023-03-20T06:43:23.071Z,100.00
2023-03-20T06:45:54.137Z,100.00
2023-03-20T06:48:27.078Z,100.00
2023-03-20T06:50:54.854Z,100.00
2023-03-20T06:53:27.239Z,100.00
2023-03-20T06:56:11.196Z,100.00
2023-03-20T06:58:40.579Z,100.00
2023-03-20T07:01:17.349Z,100.00
2023-03-20T07:03:45.249Z,100.00
2023-03-20T07:06:13.562Z,100.00
2023-03-20T07:08:40.768Z,100.00
2023-03-20T07:11:08.437Z,100.00
2023-03-20T07:13:35.718Z,100.00
2023-03-20T07:16:12.504Z,100.00
2023-03-20T07:18:41.563Z,100.00
2023-03-20T07:21:09.105Z,100.00
2023-03-20T07:23:37.283Z,100.00
2023-03-20T07:26:05.617Z,100.00
2023-03-20T07:28:34.153Z,100.00
2023-03-20T07:31:23.592Z,100.00
2023-03-20T07:33:58.073Z,100.00
2023-03-20T07:36:25.593Z,100.00
2023-03-20T07:38:52.522Z,100.00
2023-03-20T07:41:19.573Z,100.00
2023-03-20T07:43:57.329Z,100.00
2023-03-20T07:46:25.621Z,100.00
2023-03-20T07:48:53.982Z,100.00
2023-03-20T07:51:21.033Z,100.00
2023-03-20T07:53:48.052Z,100.00
2023-03-20T07:56:15.013Z,100.00
2023-03-20T07:58:42.139Z,100.00
2023-03-20T08:01:09.085Z,100.00
2023-03-20T08:03:36.266Z,100.00
2023-03-20T08:06:06.526Z,100.00
2023-03-20T08:08:34.105Z,100.00
2023-03-20T08:11:01.605Z,100.00
2023-03-20T08:13:28.628Z,98.76
2023-03-20T08:15:55.789Z,96.77
2023-03-20T08:18:22.894Z,96.64
2023-03-20T08:20:52.922Z,100.00
2023-03-20T08:23:20.865Z,99.37
2023-03-20T08:25:49.597Z,96.91
2023-03-20T08:28:17.303Z,97.36
2023-03-20T08:30:44.647Z,95.61
2023-03-20T08:33:12.239Z,96.42
2023-03-20T08:35:39.440Z,93.77
2023-03-20T08:38:06.455Z,97.67
2023-03-20T08:40:33.476Z,97.91
2023-03-20T08:43:00.539Z,99.29
2023-03-20T08:45:27.522Z,97.79
2023-03-20T08:47:55.123Z,97.88
2023-03-20T08:50:22.792Z,95.29
2023-03-20T08:52:49.797Z,90.31
2023-03-20T08:55:17.354Z,86.77
2023-03-20T08:57:44.416Z,83.50
2023-03-20T09:00:14.515Z,84.24
2023-03-20T09:02:43.088Z,83.81
2023-03-20T09:05:11.270Z,84.40
2023-03-20T09:07:38.609Z,81.47
2023-03-20T09:10:06.150Z,82.07
2023-03-20T09:12:33.620Z,79.74
2023-03-20T09:15:01.398Z,79.98
2023-03-20T09:17:28.515Z,81.70
2023-03-20T09:19:55.590Z,80.94
2023-03-20T09:22:22.566Z,79.50
2023-03-20T09:24:49.530Z,74.36
2023-03-20T09:27:16.614Z,73.56
2023-03-20T09:29:44.008Z,73.47
2023-03-20T09:32:15.103Z,66.93
2023-03-20T09:34:42.668Z,66.05
2023-03-20T09:37:09.863Z,62.13
2023-03-20T09:39:36.956Z,59.61
2023-03-20T09:42:22.070Z,61.17
2023-03-20T09:45:17.920Z,65.57
2023-03-20T09:48:02.686Z,65.13
2023-03-20T09:50:36.783Z,60.14
2023-03-20T09:53:39.030Z,54.99
2023-03-20T09:56:16.677Z,47.50
2023-03-20T09:58:52.335Z,43.18
2023-03-20T10:01:21.130Z,42.47
2023-03-20T10:03:56.288Z,43.89
2023-03-20T10:06:23.568Z,48.45
2023-03-20T10:08:52.146Z,52.41
2023-03-20T10:11:43.003Z,52.30
2023-03-20T10:14:24.328Z,54.02
2023-03-20T10:17:09.821Z,54.21
2023-03-20T10:19:59.196Z,54.48
2023-03-20T10:22:33.019Z,53.29
2023-03-20T10:25:08.958Z,53.03
2023-03-20T10:28:08.253Z,51.89
2023-03-20T10:31:05.808Z,53.39
2023-03-20T10:33:58.530Z,52.64
2023-03-20T10:36:47.406Z,49.96
2023-03-20T10:39:29.587Z,55.22
2023-03-20T10:42:01.316Z,55.55
2023-03-20T10:44:39.019Z,54.16
2023-03-20T10:47:10.295Z,56.40
2023-03-20T10:49:43.096Z,57.70
2023-03-20T10:52:16.845Z,57.40
2023-03-20T10:55:10.478Z,57.09
2023-03-20T10:57:47.565Z,59.20
2023-03-20T11:00:21.494Z,59.27
2023-03-20T11:02:48.786Z,59.05
2023-03-20T11:05:25.266Z,61.02
2023-03-20T11:08:12.608Z,61.37
2023-03-20T11:10:42.076Z,55.13
2023-03-20T11:13:31.972Z,56.42
2023-03-20T11:16:10.737Z,60.18
2023-03-20T11:18:38.265Z,62.49
2023-03-20T11:21:08.679Z,60.92
2023-03-20T11:23:35.944Z,60.08
2023-03-20T11:26:12.055Z,61.14
2023-03-20T11:28:52.229Z,54.38
2023-03-20T11:31:24.941Z,56.10
2023-03-20T11:33:51.995Z,57.24
2023-03-20T11:36:22.132Z,62.26
2023-03-20T11:38:50.741Z,60.85
2023-03-20T11:41:23.003Z,63.92
2023-03-20T11:43:49.973Z,64.83
2023-03-20T11:46:17.082Z,65.55
2023-03-20T11:48:45.980Z,67.67
2023-03-20T11:51:20.260Z,69.02
2023-03-20T11:53:48.214Z,68.60
2023-03-20T11:56:21.476Z,70.77
2023-03-20T11:59:18.382Z,71.15
2023-03-20T12:01:54.115Z,75.70
2023-03-20T12:04:42.071Z,76.40
2023-03-20T12:07:27.337Z,73.36
2023-03-20T12:10:01.258Z,71.47
2023-03-20T12:12:57.918Z,70.83
2023-03-20T12:15:33.221Z,72.09
2023-03-20T12:18:30.965Z,72.14
2023-03-20T12:21:16.213Z,71.07
2023-03-20T12:23:51.579Z,72.56
2023-03-20T12:26:33.556Z,74.91
2023-03-20T12:29:29.627Z,74.95
2023-03-20T12:32:17.138Z,73.94
2023-03-20T12:34:50.611Z,75.65
2023-03-20T12:37:18.603Z,74.03
2023-03-20T12:39:56.734Z,74.38
2023-03-20T12:42:34.806Z,72.96
2023-03-20T12:45:11.346Z,73.43
2023-03-20T12:48:03.275Z,71.48
2023-03-20T12:50:48.233Z,72.77
2023-03-20T12:53:21.191Z,73.51
2023-03-20T12:56:38.146Z,80.18
2023-03-20T12:59:14.133Z,82.82
2023-03-20T13:02:18.005Z,77.28
2023-03-20T13:05:23.341Z,75.93
2023-03-20T13:08:02.709Z,75.35
2023-03-20T13:10:41.776Z,76.12
2023-03-20T13:13:33.744Z,79.62
2023-03-20T13:16:36.997Z,78.11
2023-03-20T13:19:28.596Z,79.71
2023-03-20T13:22:03.066Z,81.28
2023-03-20T13:24:46.914Z,76.74
2023-03-20T13:27:41.481Z,80.71
2023-03-20T13:30:33.488Z,84.71
2023-03-20T13:33:19.164Z,84.60
2023-03-20T13:36:01.186Z,87.43
2023-03-20T13:38:34.148Z,86.67
2023-03-20T13:41:04.262Z,87.26
2023-03-20T13:43:54.480Z,86.98
2023-03-20T13:46:28.919Z,86.00
2023-03-20T13:49:07.976Z,86.35
2023-03-20T13:52:11.907Z,88.16
2023-03-20T13:55:17.469Z,87.47
2023-03-20T13:58:07.209Z,92.32
2023-03-20T14:00:47.623Z,93.15
2023-03-20T14:03:33.122Z,90.04
2023-03-20T14:06:00.201Z,93.03
2023-03-20T14:08:27.085Z,92.86
2023-03-20T14:11:06.286Z,92.47
2023-03-20T14:13:34.948Z,93.65
2023-03-20T14:16:07.869Z,89.30
2023-03-20T14:18:34.973Z,90.12
2023-03-20T14:21:09.765Z,91.44
2023-03-20T14:23:44.494Z,92.65
2023-03-20T14:26:41.984Z,85.91
2023-03-20T14:29:11.676Z,90.93
2023-03-20T14:31:42.250Z,93.41
2023-03-20T14:34:12.307Z,90.18
2023-03-20T14:36:59.538Z,90.64
2023-03-20T14:39:44.697Z,87.23
2023-03-20T14:42:25.004Z,87.29
2023-03-20T14:45:07.375Z,92.50
2023-03-20T14:47:43.228Z,92.95
2023-03-20T14:50:14.671Z,94.20
2023-03-20T14:52:44.291Z,99.82
2023-03-20T14:55:30.586Z,100.00
2023-03-20T14:58:02.287Z,100.00
2023-03-20T15:00:34.674Z,100.00
2023-03-20T15:03:15.699Z,100.00
2023-03-20T15:05:42.946Z,100.00
2023-03-20T15:08:17.354Z,97.45
2023-03-20T15:10:55.574Z,95.80
2023-03-20T15:13:24.903Z,96.81
2023-03-20T15:15:58.818Z,100.00
2023-03-20T15:18:27.753Z,100.00
2023-03-20T15:20:58.509Z,100.00
2023-03-20T15:23:28.846Z,100.00
2023-03-20T15:25:55.878Z,100.00
2023-03-20T15:28:27.756Z,100.00
2023-03-20T15:30:59.463Z,100.00
2023-03-20T15:33:27.875Z,100.00
2023-03-20T15:35:56.350Z,100.00
2023-03-20T15:38:30.357Z,100.00
2023-03-20T15:40:57.826Z,100.00
2023-03-20T15:43:26.880Z,100.00
2023-03-20T15:46:14.099Z,100.00
2023-03-20T15:48:48.899Z,100.00
2023-03-20T15:51:17.263Z,100.00
2023-03-20T15:53:47.713Z,100.00
2023-03-20T15:56:20.536Z,100.00
2023-03-20T15:58:52.669Z,100.00
2023-03-20T16:01:22.816Z,100.00
2023-03-20T16:03:50.964Z,100.00
2023-03-20T16:06:22.794Z,100.00
2023-03-20T16:09:06.920Z,100.00
2023-03-20T16:11:42.808Z,100.00
2023-03-20T16:14:21.575Z,100.00
2023-03-20T16:16:52.622Z,100.00
2023-03-20T16:19:20.357Z,100.00
2023-03-20T16:21:54.712Z,100.00
2023-03-20T16:24:36.018Z,100.00
2023-03-20T16:27:08.472Z,100.00
2023-03-20T16:29:37.376Z,100.00
2023-03-20T16:32:07.881Z,100.00
2023-03-20T16:34:38.061Z,100.00
2023-03-20T16:37:27.815Z,100.00
2023-03-20T16:40:25.281Z,100.00
2023-03-20T16:42:57.449Z,100.00
2023-03-20T16:45:29.515Z,100.00
2023-03-20T16:48:16.415Z,100.00
2023-03-20T16:50:45.568Z,100.00
2023-03-20T16:53:19.580Z,100.00
2023-03-20T16:55:52.078Z,100.00
2023-03-20T16:58:23.335Z,100.00
2023-03-20T17:00:52.500Z,100.00
2023-03-20T17:03:26.468Z,100.00
2023-03-20T17:06:04.862Z,100.00
2023-03-20T17:08:41.621Z,100.00
2023-03-20T17:11:36.595Z,100.00
2023-03-20T17:14:04.587Z,100.00
2023-03-20T17:16:33.327Z,100.00
2023-03-20T17:19:18.111Z,100.00
2023-03-20T17:21:46.651Z,100.00
2023-03-20T17:24:15.954Z,100.00
2023-03-20T17:26:46.387Z,100.00
2023-03-20T17:29:13.965Z,100.00
2023-03-20T17:31:41.026Z,100.00
2023-03-20T17:34:09.698Z,100.00
2023-03-20T17:36:38.530Z,100.00
2023-03-20T17:39:06.187Z,100.00
2023-03-20T17:41:33.308Z,100.00
2023-03-20T17:44:00.606Z,100.00
2023-03-20T17:46:30.492Z,100.00
2023-03-20T17:49:07.485Z,100.00
2023-03-20T17:51:35.529Z,100.00
2023-03-20T17:54:02.553Z,100.00
2023-03-20T17:56:32.773Z,100.00
2023-03-20T17:59:00.974Z,100.00
2023-03-20T18:01:32.162Z,100.00
2023-03-20T18:03:59.661Z,100.00
2023-03-20T18:06:30.493Z,100.00
2023-03-20T18:08:58.925Z,100.00
2023-03-20T18:11:26.938Z,100.00
2023-03-20T18:13:54.040Z,100.00
2023-03-20T18:16:24.267Z,100.00
2023-03-20T18:18:52.666Z,100.00
2023-03-20T18:21:19.841Z,100.00
2023-03-20T18:23:47.178Z,100.00
2023-03-20T18:26:22.845Z,100.00
2023-03-20T18:28:52.256Z,100.00
2023-03-20T18:31:20.291Z,100.00
2023-03-20T18:33:49.291Z,100.00
2023-03-20T18:36:19.086Z,100.00
2023-03-20T18:38:46.485Z,100.00
2023-03-20T18:41:13.596Z,100.00
2023-03-20T18:43:41.283Z,100.00
2023-03-20T18:46:16.648Z,100.00
2023-03-20T18:48:43.858Z,100.00
2023-03-20T18:51:11.293Z,100.00
2023-03-20T18:53:40.789Z,100.00
2023-03-20T18:56:17.777Z,100.00
2023-03-20T18:58:46.123Z,100.00
2023-03-20T19:01:15.630Z,100.00
2023-03-20T19:03:44.285Z,100.00
2023-03-20T19:06:17.873Z,100.00
2023-03-20T19:08:45.877Z,100.00
2023-03-20T19:11:17.894Z,100.00
2023-03-20T19:13:52.301Z,100.00
2023-03-20T19:16:24.662Z,100.00
2023-03-20T19:18:53.657Z,100.00
2023-03-20T19:21:26.226Z,100.00
2023-03-20T19:23:55.316Z,100.00
2023-03-20T19:26:26.546Z,100.00
2023-03-20T19:28:55.722Z,100.00
2023-03-20T19:31:24.236Z,100.00
2023-03-20T19:33:51.906Z,100.00
2023-03-20T19:36:23.180Z,100.00
2023-03-20T19:38:51.715Z,100.00
2023-03-20T19:41:20.026Z,100.00
2023-03-20T19:43:53.144Z,100.00
2023-03-20T19:46:38.726Z,100.00
2023-03-20T19:49:07.197Z,100.00
2023-03-20T19:51:34.290Z,100.00
2023-03-20T19:54:01.334Z,100.00
2023-03-20T19:56:28.388Z,100.00
2023-03-20T19:58:55.604Z,100.00
2023-03-20T20:01:25.377Z,100.00
2023-03-20T20:03:58.321Z,100.00
2023-03-20T20:06:31.164Z,100.00
2023-03-20T20:08:59.416Z,100.00
2023-03-20T20:11:26.440Z,100.00
2023-03-20T20:14:10.303Z,100.00
2023-03-20T20:16:42.678Z,100.00
2023-03-20T20:19:10.263Z,100.00
2023-03-20T20:24:24.516Z,100.00
2023-03-20T20:27:07.052Z,100.00
2023-03-20T20:29:40.365Z,100.00
2023-03-20T20:32:07.642Z,100.00
2023-03-20T20:40:15.629Z,100.00
2023-03-20T20:42:43.353Z,100.00
2023-03-20T20:45:14.769Z,100.00
2023-03-20T20:47:44.948Z,100.00
2023-03-20T20:50:13.933Z,100.00
2023-03-20T20:52:42.724Z,100.00
2023-03-20T20:55:22.453Z,100.00
2023-03-20T20:57:52.447Z,100.00
2023-03-20T21:00:25.903Z,100.00
2023-03-20T21:02:56.834Z,100.00
2023-03-20T21:05:24.170Z,100.00
2023-03-20T21:07:52.629Z,100.00
2023-03-20T21:10:22.045Z,100.00
2023-03-20T21:12:59.144Z,100.00
2023-03-20T21:15:27.534Z,100.00
2023-03-20T21:18:01.068Z,100.00
2023-03-20T21:20:32.556Z,100.00
2023-03-20T21:22:59.974Z,100.00
2023-03-20T21:25:47.013Z,100.00
2023-03-20T21:28:15.223Z,100.00
2023-03-20T21:30:56.491Z,100.00
2023-03-20T21:33:31.122Z,100.00
2023-03-20T21:35:58.324Z,100.00
2023-03-20T21:41:13.377Z,100.00
2023-03-20T21:43:41.131Z,100.00
2023-03-20T21:49:43.661Z,100.00
2023-03-20T21:52:35.968Z,100.00
2023-03-20T21:58:00.187Z,100.00
2023-03-20T22:02:57.047Z,100.00
2023-03-20T22:06:02.522Z,100.00
2023-03-20T22:11:45.134Z,100.00
2023-03-20T22:20:09.202Z,100.00
2023-03-20T22:25:39.158Z,100.00
2023-03-20T22:28:22.419Z,100.00
2023-03-20T22:34:09.876Z,100.00
2023-03-20T22:37:04.522Z,100.00
2023-03-20T22:40:04.179Z,100.00
2023-03-20T22:42:28.552Z,100.00
2023-03-20T22:44:59.915Z,100.00
2023-03-20T22:47:21.241Z,100.00
2023-03-20T22:49:48.241Z,100.00
2023-03-20T22:52:29.079Z,100.00
2023-03-20T22:55:02.065Z,100.00
2023-03-20T22:57:41.289Z,100.00
2023-03-20T23:00:15.382Z,100.00
2023-03-20T23:02:42.768Z,100.00
2023-03-20T23:05:10.670Z,100.00
2023-03-20T23:07:37.996Z,100.00
2023-03-20T23:10:06.242Z,100.00
2023-03-20T23:12:33.618Z,100.00
2023-03-20T23:15:00.754Z,100.00
2023-03-20T23:17:27.798Z,100.00
2023-03-20T23:20:08.568Z,100.00
2023-03-20T23:22:38.436Z,100.00
2023-03-20T23:25:16.381Z,100.00
2023-03-20T23:27:48.144Z,100.00
2023-03-20T23:30:15.571Z,100.00
2023-03-20T23:32:42.862Z,100.00
2023-03-20T23:35:10.457Z,100.00
2023-03-20T23:37:37.465Z,100.00
2023-03-20T23:40:05.243Z,100.00
2023-03-20T23:42:32.321Z,100.00
2023-03-20T23:45:07.184Z,100.00
2023-03-20T23:50:36.513Z,100.00
2023-03-20T23:53:19.556Z,100.00
2023-03-20T23:55:49.086Z,100.00
2023-03-20T23:58:16.472Z,100.00
